createdAt,value
2018-02-17T00:01:43.185Z,21.40
2018-02-17T00:04:11.312Z,22.70
2018-02-17T00:06:39.487Z,20.93
2018-02-17T00:09:07.623Z,21.80
2018-02-17T00:11:35.761Z,22.20
2018-02-17T00:14:03.911Z,21.33
2018-02-17T00:16:32.075Z,21.07
2018-02-17T00:19:00.980Z,22.70
2018-02-17T00:21:29.102Z,23.07
2018-02-17T00:23:57.513Z,22.87
2018-02-17T00:26:25.626Z,22.93
2018-02-17T00:28:53.787Z,22.93
2018-02-17T00:31:21.931Z,22.77
2018-02-17T00:33:50.101Z,24.50
2018-02-17T00:36:18.243Z,23.53
2018-02-17T00:38:46.363Z,25.00
2018-02-17T00:41:15.257Z,25.73
2018-02-17T00:43:44.229Z,25.23
2018-02-17T00:46:12.593Z,24.30
2018-02-17T00:48:44.298Z,25.50
2018-02-17T00:51:13.206Z,24.17
2018-02-17T00:53:45.400Z,23.80
2018-02-17T00:56:13.505Z,23.20
2018-02-17T00:58:41.664Z,24.30
2018-02-17T01:01:09.832Z,22.27
2018-02-17T01:03:39.699Z,21.33
2018-02-17T01:06:08.721Z,20.97
2018-02-17T01:08:36.865Z,21.57
2018-02-17T01:11:10.045Z,21.73
2018-02-17T01:13:40.861Z,21.03
2018-02-17T01:16:09.138Z,23.27
2018-02-17T01:18:37.265Z,23.37
2018-02-17T01:21:06.088Z,24.53
2018-02-17T01:23:34.925Z,22.87
2018-02-17T01:26:04.574Z,22.53
2018-02-17T01:28:33.426Z,22.40
2018-02-17T01:31:02.303Z,22.03
2018-02-17T01:33:30.785Z,22.07
2018-02-17T01:35:59.090Z,22.00
2018-02-17T01:38:27.382Z,22.40
2018-02-17T01:40:55.619Z,20.63
2018-02-17T01:43:23.873Z,20.63
2018-02-17T01:45:54.980Z,20.10
2018-02-17T01:48:23.152Z,19.10
2018-02-17T01:50:51.333Z,19.53
2018-02-17T01:53:19.480Z,19.67
2018-02-17T01:55:49.187Z,20.37
2018-02-17T01:58:22.279Z,19.47
2018-02-17T02:00:51.219Z,18.07
2018-02-17T02:03:19.465Z,19.10
2018-02-17T02:05:47.570Z,18.90
2018-02-17T02:08:15.729Z,19.80
2018-02-17T02:10:43.871Z,19.87
2018-02-17T02:13:12.812Z,20.77
2018-02-17T02:15:41.844Z,19.87
2018-02-17T02:18:14.815Z,18.43
2018-02-17T02:20:42.953Z,18.73
2018-02-17T02:23:11.079Z,18.63
2018-02-17T02:25:40.032Z,19.33
2018-02-17T02:28:08.374Z,18.30
2018-02-17T02:30:36.882Z,18.50
2018-02-17T02:33:13.324Z,17.87
2018-02-17T02:35:41.452Z,18.73
2018-02-17T02:38:09.598Z,17.53
2018-02-17T02:40:37.738Z,18.93
2018-02-17T02:43:07.362Z,18.67
2018-02-17T02:45:49.396Z,18.90
2018-02-17T02:48:24.206Z,20.60
2018-02-17T02:50:52.340Z,20.07
2018-02-17T02:53:21.403Z,21.03
2018-02-17T02:55:49.538Z,21.37
2018-02-17T02:58:17.989Z,20.97
2018-02-17T03:00:46.108Z,21.10
2018-02-17T03:03:14.228Z,21.47
2018-02-17T03:05:42.375Z,21.80
2018-02-17T03:08:10.550Z,20.90
2018-02-17T03:10:38.765Z,20.23
2018-02-17T03:13:06.876Z,21.33
2018-02-17T03:15:35.102Z,18.67
2018-02-17T03:18:03.992Z,19.23
2018-02-17T03:20:36.005Z,19.70
2018-02-17T03:23:04.131Z,20.87
2018-02-17T03:25:32.861Z,20.30
2018-02-17T03:28:01.070Z,19.53
2018-02-17T03:30:29.254Z,18.27
2018-02-17T03:32:58.267Z,20.70
2018-02-17T03:35:26.375Z,19.67
2018-02-17T03:37:54.480Z,16.97
2018-02-17T03:40:23.371Z,18.87
2018-02-17T03:42:51.643Z,18.20
2018-02-17T03:45:19.750Z,17.10
2018-02-17T03:47:47.858Z,18.67
2018-02-17T03:50:16.012Z,18.90
2018-02-17T03:52:44.199Z,19.07
2018-02-17T03:55:12.326Z,20.57
2018-02-17T03:57:41.307Z,19.33
2018-02-17T04:00:10.248Z,18.30
2018-02-17T04:02:38.788Z,17.87
2018-02-17T04:05:11.837Z,18.93
2018-02-17T04:07:41.716Z,16.97
2018-02-17T04:10:10.751Z,18.43
2018-02-17T04:12:46.919Z,17.27
2018-02-17T04:15:23.406Z,17.33
2018-02-17T04:17:53.066Z,15.93
2018-02-17T04:20:21.254Z,15.60
2018-02-17T04:22:49.389Z,14.73
2018-02-17T04:25:31.745Z,14.40
2018-02-17T04:28:03.458Z,14.00
2018-02-17T04:30:32.292Z,15.63
2018-02-17T04:33:01.102Z,16.13
2018-02-17T04:35:31.737Z,16.73
2018-02-17T04:37:59.857Z,17.53
2018-02-17T04:40:29.880Z,18.47
2018-02-17T04:43:01.782Z,18.13
2018-02-17T04:45:30.704Z,18.40
2018-02-17T04:48:29.872Z,18.23
2018-02-17T04:51:04.941Z,15.97
2018-02-17T04:53:40.437Z,16.03
2018-02-17T04:59:39.434Z,14.50
2018-02-17T05:02:08.592Z,15.60
2018-02-17T05:04:41.592Z,17.27
2018-02-17T05:07:13.771Z,15.07
2018-02-17T05:09:41.886Z,15.77
2018-02-17T05:12:10.024Z,15.20
2018-02-17T05:14:44.293Z,15.67
2018-02-17T05:20:37.178Z,15.07
2018-02-17T05:23:09.376Z,14.17
2018-02-17T05:25:38.005Z,16.13
2018-02-17T05:28:07.805Z,15.30
2018-02-17T05:30:51.617Z,15.77
2018-02-17T05:33:36.116Z,16.97
2018-02-17T05:36:14.205Z,17.60
2018-02-17T05:38:42.375Z,16.70
2018-02-17T05:41:19.753Z,17.00
2018-02-17T05:43:47.872Z,19.93
2018-02-17T05:46:19.340Z,19.83
2018-02-17T05:48:50.514Z,18.43
2018-02-17T05:51:18.631Z,17.53
2018-02-17T05:53:46.769Z,17.37
2018-02-17T05:56:15.605Z,18.67
2018-02-17T05:58:48.272Z,17.27
2018-02-17T06:01:16.382Z,17.27
2018-02-17T06:03:44.472Z,17.07
2018-02-17T06:06:12.643Z,14.20
2018-02-17T06:08:40.760Z,15.00
2018-02-17T06:11:08.881Z,15.20
2018-02-17T06:13:37.008Z,15.27
2018-02-17T06:16:05.168Z,14.87
2018-02-17T06:18:33.264Z,14.27
2018-02-17T06:21:01.398Z,11.77
2018-02-17T06:23:29.515Z,12.03
2018-02-17T06:25:57.672Z,12.77
2018-02-17T06:28:25.925Z,12.17
2018-02-17T06:30:54.065Z,10.50
2018-02-17T06:33:22.169Z,11.10
2018-02-17T06:35:50.292Z,11.83
2018-02-17T06:38:18.413Z,10.57
2018-02-17T06:40:46.512Z,11.10
2018-02-17T06:43:14.620Z,12.00
2018-02-17T06:45:42.733Z,12.07
2018-02-17T06:48:10.894Z,11.43
2018-02-17T06:50:39.560Z,11.87
2018-02-17T06:53:08.548Z,13.17
2018-02-17T06:55:36.632Z,13.17
2018-02-17T06:58:04.790Z,13.80
2018-02-17T07:00:32.976Z,13.63
2018-02-17T07:03:01.066Z,13.07
2018-02-17T07:05:29.198Z,13.33
2018-02-17T07:07:57.349Z,12.93
2018-02-17T07:10:25.494Z,14.07
2018-02-17T07:12:53.651Z,12.27
2018-02-17T07:15:21.761Z,12.47
2018-02-17T07:17:50.069Z,13.47
2018-02-17T07:20:23.773Z,13.00
2018-02-17T07:22:51.865Z,13.17
2018-02-17T07:25:20.738Z,12.07
2018-02-17T07:27:49.745Z,13.57
2018-02-17T07:30:17.897Z,11.87
2018-02-17T07:32:46.047Z,12.37
2018-02-17T07:35:14.219Z,12.40
2018-02-17T07:37:42.361Z,13.63
2018-02-17T07:40:10.494Z,12.27
2018-02-17T07:42:38.613Z,12.33
2018-02-17T07:45:06.718Z,13.43
2018-02-17T07:47:34.839Z,12.93
2018-02-17T07:50:02.938Z,14.77
2018-02-17T07:52:31.061Z,15.07
2018-02-17T07:54:59.158Z,14.87
2018-02-17T07:57:27.297Z,15.70
2018-02-17T07:59:55.414Z,14.93
2018-02-17T08:02:23.604Z,15.20
2018-02-17T08:04:51.719Z,15.33
2018-02-17T08:07:19.825Z,14.20
2018-02-17T08:09:47.962Z,14.90
2018-02-17T08:12:16.830Z,15.20
2018-02-17T08:14:45.562Z,15.80
2018-02-17T08:17:13.786Z,14.60
2018-02-17T08:19:41.908Z,14.57
2018-02-17T08:22:10.113Z,13.30
2018-02-17T08:24:38.372Z,14.03
2018-02-17T08:27:07.261Z,12.43
2018-02-17T08:29:35.385Z,12.80
2018-02-17T08:32:03.486Z,13.40
2018-02-17T08:34:31.592Z,12.47
2018-02-17T08:36:59.720Z,12.23
2018-02-17T08:39:27.878Z,12.60
2018-02-17T08:41:56.006Z,11.80
2018-02-17T08:44:24.135Z,12.20
2018-02-17T08:46:52.259Z,12.23
2018-02-17T08:49:20.395Z,12.07
2018-02-17T08:51:48.507Z,12.20
2018-02-17T08:54:17.130Z,12.73
2018-02-17T08:56:45.279Z,11.70
2018-02-17T08:59:13.475Z,10.53
2018-02-17T09:01:41.569Z,11.67
2018-02-17T09:04:09.697Z,11.63
2018-02-17T09:06:37.893Z,12.40
2018-02-17T09:09:05.987Z,12.07
2018-02-17T09:11:34.437Z,11.47
2018-02-17T09:14:02.537Z,11.07
2018-02-17T09:16:30.693Z,10.63
2018-02-17T09:18:58.820Z,11.03
2018-02-17T09:21:27.078Z,11.83
2018-02-17T09:23:55.984Z,11.07
2018-02-17T09:26:24.088Z,11.63
2018-02-17T09:28:52.236Z,11.33
2018-02-17T09:31:20.346Z,10.63
2018-02-17T09:33:48.794Z,10.73
2018-02-17T09:36:16.964Z,9.63
2018-02-17T09:38:45.133Z,11.07
2018-02-17T09:41:13.409Z,10.57
2018-02-17T09:43:41.571Z,11.53
2018-02-17T09:46:09.723Z,10.17
2018-02-17T09:48:38.071Z,10.80
2018-02-17T09:51:06.979Z,10.70
2018-02-17T09:53:35.142Z,10.17
2018-02-17T09:56:03.281Z,10.50
2018-02-17T09:58:36.011Z,10.67
2018-02-17T10:01:04.117Z,11.03
2018-02-17T10:03:32.240Z,9.60
2018-02-17T10:06:00.584Z,9.53
2018-02-17T10:08:28.802Z,10.37
2018-02-17T10:10:57.153Z,9.97
2018-02-17T10:13:25.280Z,9.57
2018-02-17T10:15:53.460Z,11.00
2018-02-17T10:18:21.642Z,10.07
2018-02-17T10:20:50.213Z,10.90
2018-02-17T10:23:19.129Z,10.77
2018-02-17T10:25:47.227Z,11.27
2018-02-17T10:28:15.335Z,11.20
2018-02-17T10:30:43.444Z,9.63
2018-02-17T10:33:11.895Z,11.33
2018-02-17T10:35:40.044Z,9.30
2018-02-17T10:38:08.771Z,13.13
2018-02-17T10:40:36.940Z,11.17
2018-02-17T10:43:05.147Z,9.83
2018-02-17T10:45:33.283Z,9.70
2018-02-17T10:48:01.512Z,8.87
2018-02-17T10:50:29.616Z,8.33
2018-02-17T10:52:57.736Z,9.03
2018-02-17T10:55:31.446Z,7.97
2018-02-17T10:57:59.528Z,7.60
2018-02-17T11:00:27.624Z,8.00
2018-02-17T11:02:55.748Z,7.87
2018-02-17T11:05:23.866Z,7.87
2018-02-17T11:07:51.968Z,8.23
2018-02-17T11:10:20.068Z,9.13
2018-02-17T11:12:48.202Z,10.07
2018-02-17T11:15:16.287Z,9.73
2018-02-17T11:17:44.392Z,9.73
2018-02-17T11:20:12.630Z,9.03
2018-02-17T11:22:40.740Z,10.57
2018-02-17T11:25:08.943Z,11.33
2018-02-17T11:27:37.080Z,9.87
2018-02-17T11:30:05.218Z,10.27
2018-02-17T11:32:33.309Z,10.93
2018-02-17T11:35:01.445Z,11.00
2018-02-17T11:37:29.548Z,12.60
2018-02-17T11:39:57.764Z,13.13
2018-02-17T11:42:25.992Z,11.40
2018-02-17T11:44:54.149Z,11.97
2018-02-17T11:47:22.273Z,12.87
2018-02-17T11:49:50.367Z,12.50
2018-02-17T11:52:18.471Z,14.13
2018-02-17T11:54:47.369Z,14.00
2018-02-17T11:57:15.483Z,14.33
2018-02-17T11:59:43.765Z,13.67
2018-02-17T12:02:11.883Z,12.50
2018-02-17T12:04:40.009Z,14.20
2018-02-17T12:07:08.213Z,13.33
2018-02-17T12:09:36.323Z,14.00
2018-02-17T12:12:05.088Z,14.00
2018-02-17T12:14:33.952Z,15.13
2018-02-17T12:17:02.118Z,14.10
2018-02-17T12:19:30.238Z,13.97
2018-02-17T12:21:58.416Z,12.80
2018-02-17T12:24:26.524Z,14.00
2018-02-17T12:26:54.642Z,13.43
2018-02-17T12:29:23.051Z,14.37
2018-02-17T12:31:51.219Z,13.10
2018-02-17T12:34:19.380Z,13.50
2018-02-17T12:36:47.475Z,13.63
2018-02-17T12:39:15.628Z,13.40
2018-02-17T12:41:43.723Z,13.83
2018-02-17T12:44:11.879Z,12.67
2018-02-17T12:46:39.991Z,12.93
2018-02-17T12:49:08.129Z,13.10
2018-02-17T12:51:36.233Z,13.33
2018-02-17T12:54:04.393Z,13.07
2018-02-17T12:56:32.797Z,14.60
2018-02-17T12:59:00.977Z,14.80
2018-02-17T13:01:29.166Z,14.83
2018-02-17T13:03:57.274Z,16.03
2018-02-17T13:06:25.390Z,16.70
2018-02-17T13:08:53.634Z,15.77
2018-02-17T13:11:21.769Z,17.10
2018-02-17T13:13:49.880Z,16.33
2018-02-17T13:16:18.018Z,18.03
2018-02-17T13:18:46.156Z,17.50
2018-02-17T13:21:14.294Z,18.37
2018-02-17T13:23:42.423Z,17.83
2018-02-17T13:26:10.817Z,17.77
2018-02-17T13:28:39.000Z,18.40
2018-02-17T13:31:07.112Z,16.90
2018-02-17T13:33:35.245Z,18.47
2018-02-17T13:36:03.375Z,17.90
2018-02-17T13:38:31.695Z,18.50
2018-02-17T13:40:59.898Z,18.80
2018-02-17T13:43:28.106Z,16.77
2018-02-17T13:45:56.323Z,16.60
2018-02-17T13:48:24.450Z,16.10
2018-02-17T13:50:52.594Z,13.70
2018-02-17T13:53:20.951Z,14.47
2018-02-17T13:55:49.067Z,14.53
2018-02-17T13:58:17.158Z,15.17
2018-02-17T14:00:45.269Z,14.60
2018-02-17T14:03:13.376Z,14.70
2018-02-17T14:05:41.568Z,15.13
2018-02-17T14:08:09.680Z,13.40
2018-02-17T14:10:37.924Z,13.90
2018-02-17T14:13:06.270Z,13.50
2018-02-17T14:15:34.625Z,14.07
2018-02-17T14:18:02.749Z,14.80
2018-02-17T14:20:30.864Z,14.90
2018-02-17T14:22:59.080Z,16.60
2018-02-17T14:25:27.338Z,16.50
2018-02-17T14:27:55.465Z,16.00
2018-02-17T14:30:23.615Z,15.60
2018-02-17T14:32:52.253Z,16.67
2018-02-17T14:35:21.176Z,16.27
2018-02-17T14:37:49.283Z,16.97
2018-02-17T14:40:18.193Z,16.90
2018-02-17T14:42:46.318Z,18.10
2018-02-17T14:45:14.444Z,18.57
2018-02-17T14:47:42.547Z,18.00
2018-02-17T14:50:11.142Z,18.63
2018-02-17T14:52:39.544Z,18.83
2018-02-17T14:55:07.685Z,18.47
2018-02-17T14:57:35.793Z,19.67
2018-02-17T15:00:03.906Z,20.40
2018-02-17T15:02:32.109Z,19.50
2018-02-17T15:05:00.291Z,20.37
2018-02-17T15:07:28.688Z,22.33
2018-02-17T15:09:56.986Z,20.93
2018-02-17T15:12:25.142Z,22.77
2018-02-17T15:14:53.271Z,22.33
2018-02-17T15:17:21.805Z,23.17
2018-02-17T15:19:51.477Z,23.27
2018-02-17T15:22:19.573Z,22.10
2018-02-17T15:24:48.418Z,22.80
2018-02-17T15:27:16.824Z,23.53
2018-02-17T15:29:44.952Z,23.50
2018-02-17T15:32:13.688Z,22.63
2018-02-17T15:34:41.845Z,24.30
2018-02-17T15:37:10.168Z,23.17
2018-02-17T15:39:38.344Z,24.40
2018-02-17T15:42:06.929Z,23.47
2018-02-17T15:44:35.817Z,24.43
2018-02-17T15:47:04.694Z,23.07
2018-02-17T15:49:32.788Z,24.17
2018-02-17T15:52:00.960Z,23.23
2018-02-17T15:54:29.064Z,23.47
2018-02-17T15:56:58.414Z,24.93
2018-02-17T15:59:26.618Z,23.23
2018-02-17T16:01:54.839Z,21.90
2018-02-17T16:04:23.035Z,20.63
2018-02-17T16:06:51.136Z,20.37
2018-02-17T16:09:19.283Z,20.23
2018-02-17T16:11:47.405Z,18.80
2018-02-17T16:14:15.576Z,19.37
2018-02-17T16:16:43.679Z,16.10
2018-02-17T16:19:11.831Z,16.87
2018-02-17T16:21:39.926Z,16.97
2018-02-17T16:24:08.114Z,17.23
2018-02-17T16:26:36.379Z,16.47
2018-02-17T16:29:04.563Z,17.30
2018-02-17T16:31:32.822Z,17.87
2018-02-17T16:34:01.033Z,17.03
2018-02-17T16:36:29.318Z,16.87
2018-02-17T16:38:57.576Z,17.60
2018-02-17T16:41:25.754Z,17.53
2018-02-17T16:43:54.044Z,18.67
2018-02-17T16:46:22.285Z,17.83
2018-02-17T16:48:50.435Z,16.90
2018-02-17T16:51:18.625Z,17.20
2018-02-17T16:53:46.741Z,17.97
2018-02-17T16:56:14.858Z,17.80
2018-02-17T16:58:43.042Z,17.60
2018-02-17T17:01:27.110Z,18.83
2018-02-17T17:10:14.322Z,16.50
2018-02-17T17:12:59.753Z,17.17
2018-02-17T17:18:59.239Z,16.93
2018-02-17T17:21:53.273Z,16.83
2018-02-17T17:24:55.588Z,16.90
2018-02-17T17:27:58.909Z,15.63
2018-02-17T17:33:05.454Z,15.33
2018-02-17T17:35:48.706Z,15.33
2018-02-17T17:38:22.460Z,16.73
2018-02-17T17:43:48.812Z,16.53
2018-02-17T17:46:32.049Z,16.37
2018-02-17T17:49:01.797Z,16.97
2018-02-17T17:54:15.120Z,17.27
2018-02-17T17:56:51.263Z,17.23
2018-02-17T17:59:40.982Z,17.10
2018-02-17T18:15:51.805Z,18.33
2018-02-17T18:18:21.647Z,17.57
2018-02-17T18:20:54.301Z,18.53
2018-02-17T18:26:43.112Z,17.80
2018-02-17T18:29:58.189Z,19.73
2018-02-17T18:35:46.921Z,18.30
2018-02-17T18:38:15.099Z,18.47
2018-02-17T18:40:44.345Z,19.40
2018-02-17T18:43:12.473Z,18.10
2018-02-17T18:45:41.648Z,20.40
2018-02-17T18:48:09.809Z,18.77
2018-02-17T18:50:37.958Z,18.93
2018-02-17T18:53:06.480Z,18.97
2018-02-17T18:55:34.673Z,18.93
2018-02-17T18:58:03.718Z,18.87
2018-02-17T19:00:32.727Z,19.17
2018-02-17T19:03:01.358Z,19.10
2018-02-17T19:05:31.167Z,21.20
2018-02-17T19:07:59.338Z,19.57
2018-02-17T19:10:28.353Z,21.60
2018-02-17T19:12:56.554Z,21.00
2018-02-17T19:15:25.880Z,21.93
2018-02-17T19:17:54.082Z,21.60
2018-02-17T19:20:22.972Z,20.73
2018-02-17T19:22:51.976Z,20.50
2018-02-17T19:25:20.883Z,22.03
2018-02-17T19:27:49.085Z,21.10
2018-02-17T19:30:17.990Z,21.80
2018-02-17T19:32:46.975Z,22.17
2018-02-17T19:35:16.011Z,22.97
2018-02-17T19:37:44.994Z,22.30
2018-02-17T19:40:13.328Z,22.70
2018-02-17T19:42:41.531Z,23.97
2018-02-17T19:45:09.819Z,23.77
2018-02-17T19:47:39.173Z,22.03
2018-02-17T19:50:08.213Z,23.43
2018-02-17T19:52:36.434Z,23.00
2018-02-17T19:55:04.595Z,23.13
2018-02-17T19:57:33.625Z,22.17
2018-02-17T20:00:01.834Z,22.70
2018-02-17T20:02:30.014Z,22.43
2018-02-17T20:04:58.222Z,22.70
2018-02-17T20:07:27.164Z,21.93
2018-02-17T20:09:55.305Z,21.63
2018-02-17T20:12:23.561Z,23.27
2018-02-17T20:14:51.807Z,20.47
2018-02-17T20:17:21.063Z,21.20
2018-02-17T20:19:49.992Z,21.17
2018-02-17T20:22:18.159Z,19.90
2018-02-17T20:24:46.317Z,19.57
2018-02-17T20:27:15.724Z,19.40
2018-02-17T20:29:43.900Z,20.80
2018-02-17T20:32:12.018Z,20.33
2018-02-17T20:34:41.201Z,19.03
2018-02-17T20:37:09.389Z,18.23
2018-02-17T20:39:38.317Z,18.87
2018-02-17T20:42:06.442Z,19.77
2018-02-17T20:44:35.422Z,18.93
2018-02-17T20:47:04.351Z,19.20
2018-02-17T20:49:32.476Z,18.40
2018-02-17T20:52:00.652Z,18.90
2018-02-17T20:54:28.800Z,19.70
2018-02-17T20:56:56.978Z,17.57
2018-02-17T20:59:25.144Z,18.67
2018-02-17T21:01:53.301Z,20.40
2018-02-17T21:04:21.443Z,18.00
2018-02-17T21:06:49.726Z,18.90
2018-02-17T21:09:18.635Z,20.40
2018-02-17T21:11:47.880Z,19.57
2018-02-17T21:14:16.073Z,20.07
2018-02-17T21:16:44.942Z,20.67
2018-02-17T21:19:13.999Z,18.90
2018-02-17T21:21:42.875Z,17.20
2018-02-17T21:24:11.802Z,17.83
2018-02-17T21:26:39.947Z,18.77
2018-02-17T21:29:08.871Z,17.70
2018-02-17T21:31:37.012Z,18.00
2018-02-17T21:34:05.958Z,17.03
2018-02-17T21:36:35.370Z,17.27
2018-02-17T21:39:03.515Z,16.10
2018-02-17T21:41:31.695Z,17.30
2018-02-17T21:43:59.850Z,19.73
2018-02-17T21:46:28.030Z,17.93
2018-02-17T21:48:56.172Z,17.37
2018-02-17T21:51:25.092Z,17.47
2018-02-17T21:53:53.296Z,17.70
2018-02-17T21:56:21.473Z,17.40
2018-02-17T21:58:49.666Z,17.53
2018-02-17T22:01:18.852Z,17.13
2018-02-17T22:03:47.034Z,16.93
2018-02-17T22:06:15.182Z,17.03
2018-02-17T22:08:43.352Z,17.30
2018-02-17T22:11:11.503Z,17.20
2018-02-17T22:13:39.678Z,17.93
2018-02-17T22:16:07.818Z,16.60
2018-02-17T22:18:36.000Z,17.07
2018-02-17T22:21:04.978Z,17.40
2018-02-17T22:23:33.153Z,17.90
2018-02-17T22:26:02.607Z,18.33
2018-02-17T22:28:30.843Z,18.00
2018-02-17T22:30:59.897Z,18.07
2018-02-17T22:33:28.050Z,17.70
2018-02-17T22:35:57.606Z,17.60
2018-02-17T22:38:30.150Z,17.60
2018-02-17T22:40:58.318Z,16.73
2018-02-17T22:43:27.248Z,17.33
2018-02-17T22:45:55.379Z,18.30
2018-02-17T22:48:23.540Z,17.93
2018-02-17T22:50:51.709Z,18.27
2018-02-17T22:53:19.893Z,16.33
2018-02-17T22:55:48.062Z,17.00
2018-02-17T22:58:16.187Z,16.43
2018-02-17T23:00:44.362Z,16.73
2018-02-17T23:03:12.618Z,17.07
2018-02-17T23:05:40.833Z,18.20
2018-02-17T23:08:08.971Z,17.10
2018-02-17T23:10:37.109Z,17.10
2018-02-17T23:13:05.271Z,17.17
2018-02-17T23:15:33.411Z,17.03
2018-02-17T23:18:01.549Z,17.57
2018-02-17T23:20:29.793Z,16.83
2018-02-17T23:22:59.647Z,16.90
2018-02-17T23:25:27.818Z,16.53
2018-02-17T23:27:55.963Z,16.87
2018-02-17T23:30:24.836Z,16.07
2018-02-17T23:32:52.989Z,17.13
2018-02-17T23:35:21.183Z,18.23
2018-02-17T23:37:49.330Z,18.13
2018-02-17T23:40:17.560Z,17.67
2018-02-17T23:42:45.796Z,18.27
2018-02-17T23:45:14.004Z,17.60
2018-02-17T23:47:42.947Z,17.10
2018-02-17T23:50:11.070Z,18.53
2018-02-17T23:52:39.964Z,16.63
2018-02-17T23:55:08.231Z,17.23
2018-02-17T23:57:37.147Z,17.47
